sensor_id;sensor_type;location;lat;lon;timestamp;P1;durP1;ratioP1;P2;durP2;ratioP2
11598;SDS011;5855;48.840;9.188;2023-05-10T00:00:29;1.77;;;0.60;;
11598;SDS011;5855;48.840;9.188;2023-05-10T00:02:58;1.23;;;0.57;;
11598;SDS011;5855;48.840;9.188;2023-05-10T00:05:25;0.40;;;0.40;;
11598;SDS011;5855;48.840;9.188;2023-05-10T00:07:52;0.57;;;0.47;;
11598;SDS011;5855;48.840;9.188;2023-05-10T00:10:19;2.10;;;0.40;;
11598;SDS011;5855;48.840;9.188;2023-05-10T00:12:46;5.40;;;0.43;;
11598;SDS011;5855;48.840;9.188;2023-05-10T00:15:13;0.35;;;0.35;;
11598;SDS011;5855;48.840;9.188;2023-05-10T00:17:39;1.58;;;0.50;;
11598;SDS011;5855;48.840;9.188;2023-05-10T00:20:08;1.92;;;0.40;;
11598;SDS011;5855;48.840;9.188;2023-05-10T00:22:36;2.50;;;0.50;;
11598;SDS011;5855;48.840;9.188;2023-05-10T00:25:03;2.58;;;0.50;;
11598;SDS011;5855;48.840;9.188;2023-05-10T00:27:31;0.98;;;0.40;;
11598;SDS011;5855;48.840;9.188;2023-05-10T00:29:57;0.30;;;0.30;;
11598;SDS011;5855;48.840;9.188;2023-05-10T00:32:24;0.45;;;0.30;;
11598;SDS011;5855;48.840;9.188;2023-05-10T00:34:51;1.77;;;0.38;;
11598;SDS011;5855;48.840;9.188;2023-05-10T00:37:19;0.52;;;0.50;;
11598;SDS011;5855;48.840;9.188;2023-05-10T00:39:46;2.42;;;0.40;;
11598;SDS011;5855;48.840;9.188;2023-05-10T00:42:13;1.80;;;0.30;;
11598;SDS011;5855;48.840;9.188;2023-05-10T00:44:39;1.08;;;0.30;;
11598;SDS011;5855;48.840;9.188;2023-05-10T00:47:06;0.47;;;0.30;;
11598;SDS011;5855;48.840;9.188;2023-05-10T00:49:34;2.85;;;0.45;;
11598;SDS011;5855;48.840;9.188;2023-05-10T00:52:01;0.65;;;0.40;;
11598;SDS011;5855;48.840;9.188;2023-05-10T00:54:30;2.03;;;0.30;;
11598;SDS011;5855;48.840;9.188;2023-05-10T00:56:56;0.73;;;0.40;;
11598;SDS011;5855;48.840;9.188;2023-05-10T00:59:23;0.73;;;0.40;;
11598;SDS011;5855;48.840;9.188;2023-05-10T01:01:50;0.40;;;0.40;;
11598;SDS011;5855;48.840;9.188;2023-05-10T01:04:18;0.40;;;0.40;;
11598;SDS011;5855;48.840;9.188;2023-05-10T01:06:50;0.32;;;0.32;;
11598;SDS011;5855;48.840;9.188;2023-05-10T01:12:53;0.45;;;0.45;;
11598;SDS011;5855;48.840;9.188;2023-05-10T01:15:21;1.75;;;0.50;;
11598;SDS011;5855;48.840;9.188;2023-05-10T01:17:48;0.40;;;0.40;;
11598;SDS011;5855;48.840;9.188;2023-05-10T01:20:15;0.52;;;0.52;;
11598;SDS011;5855;48.840;9.188;2023-05-10T01:22:51;2.95;;;0.60;;
11598;SDS011;5855;48.840;9.188;2023-05-10T01:25:50;0.75;;;0.60;;
11598;SDS011;5855;48.840;9.188;2023-05-10T01:29:01;0.50;;;0.50;;
11598;SDS011;5855;48.840;9.188;2023-05-10T01:34:35;1.42;;;0.90;;
11598;SDS011;5855;48.840;9.188;2023-05-10T01:37:07;0.52;;;0.52;;
11598;SDS011;5855;48.840;9.188;2023-05-10T01:39:39;0.60;;;0.60;;
11598;SDS011;5855;48.840;9.188;2023-05-10T01:42:11;2.50;;;0.73;;
11598;SDS011;5855;48.840;9.188;2023-05-10T01:44:42;2.60;;;0.75;;
11598;SDS011;5855;48.840;9.188;2023-05-10T01:47:23;0.70;;;0.70;;
11598;SDS011;5855;48.840;9.188;2023-05-10T01:49:56;0.75;;;0.75;;
11598;SDS011;5855;48.840;9.188;2023-05-10T01:52:32;1.70;;;0.80;;
11598;SDS011;5855;48.840;9.188;2023-05-10T01:55:04;0.93;;;0.88;;
11598;SDS011;5855;48.840;9.188;2023-05-10T01:57:34;1.42;;;0.80;;
11598;SDS011;5855;48.840;9.188;2023-05-10T02:00:04;0.80;;;0.80;;
11598;SDS011;5855;48.840;9.188;2023-05-10T02:02:37;0.80;;;0.80;;
11598;SDS011;5855;48.840;9.188;2023-05-10T02:05:07;1.15;;;0.80;;
11598;SDS011;5855;48.840;9.188;2023-05-10T02:07:35;1.00;;;0.90;;
11598;SDS011;5855;48.840;9.188;2023-05-10T02:10:04;1.15;;;1.00;;
11598;SDS011;5855;48.840;9.188;2023-05-10T02:12:33;0.90;;;0.90;;
11598;SDS011;5855;48.840;9.188;2023-05-10T02:15:03;0.70;;;0.70;;
11598;SDS011;5855;48.840;9.188;2023-05-10T02:17:35;1.50;;;0.85;;
11598;SDS011;5855;48.840;9.188;2023-05-10T02:20:04;0.73;;;0.73;;
11598;SDS011;5855;48.840;9.188;2023-05-10T02:22:32;1.35;;;1.00;;
11598;SDS011;5855;48.840;9.188;2023-05-10T02:25:00;1.90;;;1.00;;
11598;SDS011;5855;48.840;9.188;2023-05-10T02:27:28;1.50;;;0.88;;
11598;SDS011;5855;48.840;9.188;2023-05-10T02:29:56;2.63;;;0.95;;
11598;SDS011;5855;48.840;9.188;2023-05-10T02:32:24;2.35;;;1.15;;
11598;SDS011;5855;48.840;9.188;2023-05-10T02:34:54;1.00;;;1.00;;
11598;SDS011;5855;48.840;9.188;2023-05-10T02:37:23;1.77;;;1.00;;
11598;SDS011;5855;48.840;9.188;2023-05-10T02:39:52;1.40;;;1.00;;
11598;SDS011;5855;48.840;9.188;2023-05-10T02:42:22;2.78;;;1.23;;
11598;SDS011;5855;48.840;9.188;2023-05-10T02:44:52;1.15;;;1.10;;
11598;SDS011;5855;48.840;9.188;2023-05-10T02:47:20;1.48;;;0.93;;
11598;SDS011;5855;48.840;9.188;2023-05-10T02:49:47;1.08;;;1.00;;
11598;SDS011;5855;48.840;9.188;2023-05-10T02:52:16;0.90;;;0.90;;
11598;SDS011;5855;48.840;9.188;2023-05-10T02:54:54;0.93;;;0.93;;
11598;SDS011;5855;48.840;9.188;2023-05-10T02:57:24;1.15;;;1.08;;
11598;SDS011;5855;48.840;9.188;2023-05-10T02:59:54;2.70;;;1.00;;
11598;SDS011;5855;48.840;9.188;2023-05-10T03:02:21;1.20;;;1.10;;
11598;SDS011;5855;48.840;9.188;2023-05-10T03:04:48;2.25;;;1.20;;
11598;SDS011;5855;48.840;9.188;2023-05-10T03:07:16;1.30;;;1.20;;
11598;SDS011;5855;48.840;9.188;2023-05-10T03:09:46;1.98;;;1.10;;
11598;SDS011;5855;48.840;9.188;2023-05-10T03:12:14;1.42;;;1.25;;
11598;SDS011;5855;48.840;9.188;2023-05-10T03:14:49;1.27;;;1.17;;
11598;SDS011;5855;48.840;9.188;2023-05-10T03:17:23;1.40;;;1.30;;
11598;SDS011;5855;48.840;9.188;2023-05-10T03:19:55;1.45;;;1.35;;
11598;SDS011;5855;48.840;9.188;2023-05-10T03:22:26;1.20;;;1.10;;
11598;SDS011;5855;48.840;9.188;2023-05-10T03:24:57;2.70;;;2.50;;
11598;SDS011;5855;48.840;9.188;2023-05-10T03:27:26;2.95;;;2.75;;
11598;SDS011;5855;48.840;9.188;2023-05-10T03:29:56;3.78;;;3.10;;
11598;SDS011;5855;48.840;9.188;2023-05-10T03:32:23;3.60;;;3.25;;
11598;SDS011;5855;48.840;9.188;2023-05-10T03:34:52;3.40;;;2.65;;
11598;SDS011;5855;48.840;9.188;2023-05-10T03:37:18;3.78;;;2.63;;
11598;SDS011;5855;48.840;9.188;2023-05-10T03:39:47;2.15;;;2.03;;
11598;SDS011;5855;48.840;9.188;2023-05-10T03:42:13;2.05;;;1.85;;
11598;SDS011;5855;48.840;9.188;2023-05-10T03:44:42;2.30;;;2.10;;
11598;SDS011;5855;48.840;9.188;2023-05-10T03:47:09;7.13;;;2.45;;
11598;SDS011;5855;48.840;9.188;2023-05-10T03:49:36;3.80;;;2.67;;
11598;SDS011;5855;48.840;9.188;2023-05-10T03:52:03;3.03;;;2.08;;
11598;SDS011;5855;48.840;9.188;2023-05-10T03:54:30;2.42;;;2.22;;
11598;SDS011;5855;48.840;9.188;2023-05-10T03:56:58;3.13;;;2.47;;
11598;SDS011;5855;48.840;9.188;2023-05-10T03:59:25;3.67;;;2.33;;
11598;SDS011;5855;48.840;9.188;2023-05-10T04:01:52;2.88;;;2.30;;
11598;SDS011;5855;48.840;9.188;2023-05-10T04:04:19;3.05;;;2.35;;
11598;SDS011;5855;48.840;9.188;2023-05-10T04:06:46;2.25;;;2.10;;
11598;SDS011;5855;48.840;9.188;2023-05-10T04:09:13;2.10;;;2.00;;
11598;SDS011;5855;48.840;9.188;2023-05-10T04:11:41;3.67;;;2.25;;
11598;SDS011;5855;48.840;9.188;2023-05-10T04:14:09;2.38;;;2.03;;
11598;SDS011;5855;48.840;9.188;2023-05-10T04:16:36;2.10;;;1.90;;
11598;SDS011;5855;48.840;9.188;2023-05-10T04:19:03;4.53;;;1.90;;
11598;SDS011;5855;48.840;9.188;2023-05-10T04:21:30;3.28;;;1.90;;
11598;SDS011;5855;48.840;9.188;2023-05-10T04:23:57;2.75;;;1.85;;
11598;SDS011;5855;48.840;9.188;2023-05-10T04:26:24;1.92;;;1.70;;
11598;SDS011;5855;48.840;9.188;2023-05-10T04:28:51;2.03;;;1.80;;
11598;SDS011;5855;48.840;9.188;2023-05-10T04:31:19;1.73;;;1.55;;
11598;SDS011;5855;48.840;9.188;2023-05-10T04:33:47;1.65;;;1.40;;
11598;SDS011;5855;48.840;9.188;2023-05-10T04:36:14;2.65;;;1.52;;
11598;SDS011;5855;48.840;9.188;2023-05-10T04:38:41;1.60;;;1.50;;
11598;SDS011;5855;48.840;9.188;2023-05-10T04:41:09;3.70;;;1.67;;
11598;SDS011;5855;48.840;9.188;2023-05-10T04:43:36;3.35;;;1.58;;
11598;SDS011;5855;48.840;9.188;2023-05-10T04:46:04;2.10;;;1.45;;
11598;SDS011;5855;48.840;9.188;2023-05-10T04:48:33;2.20;;;1.50;;
11598;SDS011;5855;48.840;9.188;2023-05-10T04:51:00;2.20;;;1.48;;
11598;SDS011;5855;48.840;9.188;2023-05-10T04:53:28;2.75;;;1.48;;
11598;SDS011;5855;48.840;9.188;2023-05-10T04:55:55;2.45;;;1.30;;
11598;SDS011;5855;48.840;9.188;2023-05-10T04:58:22;4.43;;;1.60;;
11598;SDS011;5855;48.840;9.188;2023-05-10T05:00:48;4.63;;;1.45;;
11598;SDS011;5855;48.840;9.188;2023-05-10T05:03:15;2.80;;;1.50;;
11598;SDS011;5855;48.840;9.188;2023-05-10T05:05:44;3.10;;;1.50;;
11598;SDS011;5855;48.840;9.188;2023-05-10T05:08:11;2.45;;;1.50;;
11598;SDS011;5855;48.840;9.188;2023-05-10T05:10:38;1.75;;;1.30;;
11598;SDS011;5855;48.840;9.188;2023-05-10T05:13:04;1.30;;;1.20;;
11598;SDS011;5855;48.840;9.188;2023-05-10T05:15:31;1.83;;;1.30;;
11598;SDS011;5855;48.840;9.188;2023-05-10T05:17:59;2.50;;;1.42;;
11598;SDS011;5855;48.840;9.188;2023-05-10T05:20:25;2.53;;;1.30;;
11598;SDS011;5855;48.840;9.188;2023-05-10T05:22:54;2.47;;;1.40;;
11598;SDS011;5855;48.840;9.188;2023-05-10T05:25:21;1.70;;;1.60;;
11598;SDS011;5855;48.840;9.188;2023-05-10T05:27:47;1.40;;;1.30;;
11598;SDS011;5855;48.840;9.188;2023-05-10T05:30:14;2.58;;;1.30;;
11598;SDS011;5855;48.840;9.188;2023-05-10T05:32:41;3.47;;;1.45;;
11598;SDS011;5855;48.840;9.188;2023-05-10T05:35:08;1.80;;;1.50;;
11598;SDS011;5855;48.840;9.188;2023-05-10T05:37:36;2.58;;;1.58;;
11598;SDS011;5855;48.840;9.188;2023-05-10T05:40:04;2.70;;;1.35;;
11598;SDS011;5855;48.840;9.188;2023-05-10T05:42:32;1.63;;;1.52;;
11598;SDS011;5855;48.840;9.188;2023-05-10T05:44:59;3.45;;;1.50;;
11598;SDS011;5855;48.840;9.188;2023-05-10T05:47:26;1.15;;;1.15;;
11598;SDS011;5855;48.840;9.188;2023-05-10T05:49:52;2.42;;;1.42;;
11598;SDS011;5855;48.840;9.188;2023-05-10T05:52:20;1.52;;;1.23;;
11598;SDS011;5855;48.840;9.188;2023-05-10T05:54:47;1.15;;;1.10;;
11598;SDS011;5855;48.840;9.188;2023-05-10T05:57:15;2.08;;;1.17;;
11598;SDS011;5855;48.840;9.188;2023-05-10T05:59:42;1.48;;;1.23;;
11598;SDS011;5855;48.840;9.188;2023-05-10T06:02:09;4.50;;;1.75;;
11598;SDS011;5855;48.840;9.188;2023-05-10T06:04:36;7.63;;;1.50;;
11598;SDS011;5855;48.840;9.188;2023-05-10T06:07:03;2.65;;;1.50;;
11598;SDS011;5855;48.840;9.188;2023-05-10T06:09:30;2.42;;;1.70;;
11598;SDS011;5855;48.840;9.188;2023-05-10T06:11:57;1.95;;;1.60;;
11598;SDS011;5855;48.840;9.188;2023-05-10T06:14:25;1.98;;;1.30;;
11598;SDS011;5855;48.840;9.188;2023-05-10T06:16:52;3.38;;;1.50;;
11598;SDS011;5855;48.840;9.188;2023-05-10T06:19:19;3.55;;;1.70;;
11598;SDS011;5855;48.840;9.188;2023-05-10T06:21:46;2.80;;;1.58;;
11598;SDS011;5855;48.840;9.188;2023-05-10T06:24:12;3.17;;;1.67;;
11598;SDS011;5855;48.840;9.188;2023-05-10T06:26:39;6.97;;;1.60;;
11598;SDS011;5855;48.840;9.188;2023-05-10T06:29:06;4.32;;;1.42;;
11598;SDS011;5855;48.840;9.188;2023-05-10T06:31:34;3.65;;;1.38;;
11598;SDS011;5855;48.840;9.188;2023-05-10T06:34:01;3.80;;;1.27;;
11598;SDS011;5855;48.840;9.188;2023-05-10T06:36:28;3.35;;;1.40;;
11598;SDS011;5855;48.840;9.188;2023-05-10T06:38:54;2.90;;;1.58;;
11598;SDS011;5855;48.840;9.188;2023-05-10T06:41:21;1.17;;;1.08;;
11598;SDS011;5855;48.840;9.188;2023-05-10T06:43:48;2.35;;;1.35;;
11598;SDS011;5855;48.840;9.188;2023-05-10T06:46:15;2.47;;;1.50;;
11598;SDS011;5855;48.840;9.188;2023-05-10T06:48:43;2.65;;;1.38;;
11598;SDS011;5855;48.840;9.188;2023-05-10T06:51:10;1.60;;;1.40;;
11598;SDS011;5855;48.840;9.188;2023-05-10T06:53:37;1.85;;;1.40;;
11598;SDS011;5855;48.840;9.188;2023-05-10T06:56:04;2.63;;;1.30;;
11598;SDS011;5855;48.840;9.188;2023-05-10T06:58:31;3.08;;;1.52;;
11598;SDS011;5855;48.840;9.188;2023-05-10T07:01:01;1.67;;;1.10;;
11598;SDS011;5855;48.840;9.188;2023-05-10T07:03:28;2.33;;;1.02;;
11598;SDS011;5855;48.840;9.188;2023-05-10T07:06:00;1.63;;;1.20;;
11598;SDS011;5855;48.840;9.188;2023-05-10T07:08:29;1.25;;;1.10;;
11598;SDS011;5855;48.840;9.188;2023-05-10T07:10:59;1.98;;;1.10;;
11598;SDS011;5855;48.840;9.188;2023-05-10T07:13:28;3.05;;;1.40;;
11598;SDS011;5855;48.840;9.188;2023-05-10T07:15:55;2.05;;;1.25;;
11598;SDS011;5855;48.840;9.188;2023-05-10T07:18:22;1.27;;;1.02;;
11598;SDS011;5855;48.840;9.188;2023-05-10T07:20:49;1.33;;;1.10;;
11598;SDS011;5855;48.840;9.188;2023-05-10T07:23:17;2.75;;;1.40;;
11598;SDS011;5855;48.840;9.188;2023-05-10T07:25:44;2.50;;;1.50;;
11598;SDS011;5855;48.840;9.188;2023-05-10T07:28:11;3.15;;;1.15;;
11598;SDS011;5855;48.840;9.188;2023-05-10T07:30:38;2.28;;;1.10;;
11598;SDS011;5855;48.840;9.188;2023-05-10T07:33:05;2.28;;;1.10;;
11598;SDS011;5855;48.840;9.188;2023-05-10T07:35:33;1.15;;;1.05;;
11598;SDS011;5855;48.840;9.188;2023-05-10T07:38:00;1.30;;;1.10;;
11598;SDS011;5855;48.840;9.188;2023-05-10T07:40:28;1.88;;;0.90;;
11598;SDS011;5855;48.840;9.188;2023-05-10T07:42:55;2.10;;;1.02;;
11598;SDS011;5855;48.840;9.188;2023-05-10T07:45:22;1.88;;;1.33;;
11598;SDS011;5855;48.840;9.188;2023-05-10T07:47:49;2.33;;;1.20;;
11598;SDS011;5855;48.840;9.188;2023-05-10T07:50:16;3.35;;;1.10;;
11598;SDS011;5855;48.840;9.188;2023-05-10T07:52:43;1.15;;;1.00;;
11598;SDS011;5855;48.840;9.188;2023-05-10T07:55:10;2.00;;;0.82;;
11598;SDS011;5855;48.840;9.188;2023-05-10T07:57:38;1.05;;;1.00;;
11598;SDS011;5855;48.840;9.188;2023-05-10T08:00:05;1.10;;;0.90;;
11598;SDS011;5855;48.840;9.188;2023-05-10T08:02:34;1.95;;;0.90;;
11598;SDS011;5855;48.840;9.188;2023-05-10T08:05:01;0.90;;;0.63;;
11598;SDS011;5855;48.840;9.188;2023-05-10T08:07:30;1.92;;;0.98;;
11598;SDS011;5855;48.840;9.188;2023-05-10T08:09:57;4.50;;;1.00;;
11598;SDS011;5855;48.840;9.188;2023-05-10T08:12:24;0.90;;;0.90;;
11598;SDS011;5855;48.840;9.188;2023-05-10T08:14:52;2.22;;;0.93;;
11598;SDS011;5855;48.840;9.188;2023-05-10T08:17:19;1.00;;;0.70;;
11598;SDS011;5855;48.840;9.188;2023-05-10T08:19:45;0.90;;;0.90;;
11598;SDS011;5855;48.840;9.188;2023-05-10T08:22:12;1.35;;;1.00;;
11598;SDS011;5855;48.840;9.188;2023-05-10T08:24:39;1.05;;;0.90;;
11598;SDS011;5855;48.840;9.188;2023-05-10T08:27:07;0.60;;;0.60;;
11598;SDS011;5855;48.840;9.188;2023-05-10T08:29:34;0.98;;;0.82;;
11598;SDS011;5855;48.840;9.188;2023-05-10T08:32:02;2.17;;;0.63;;
11598;SDS011;5855;48.840;9.188;2023-05-10T08:34:29;0.85;;;0.70;;
11598;SDS011;5855;48.840;9.188;2023-05-10T08:36:56;0.50;;;0.50;;
11598;SDS011;5855;48.840;9.188;2023-05-10T08:39:23;0.60;;;0.60;;
11598;SDS011;5855;48.840;9.188;2023-05-10T08:41:50;1.02;;;0.60;;
11598;SDS011;5855;48.840;9.188;2023-05-10T08:44:20;0.60;;;0.60;;
11598;SDS011;5855;48.840;9.188;2023-05-10T08:46:46;0.57;;;0.57;;
11598;SDS011;5855;48.840;9.188;2023-05-10T08:49:18;2.05;;;0.60;;
11598;SDS011;5855;48.840;9.188;2023-05-10T08:51:47;1.73;;;0.80;;
11598;SDS011;5855;48.840;9.188;2023-05-10T08:54:19;2.08;;;0.70;;
11598;SDS011;5855;48.840;9.188;2023-05-10T08:56:48;0.60;;;0.60;;
11598;SDS011;5855;48.840;9.188;2023-05-10T08:59:14;1.33;;;0.70;;
11598;SDS011;5855;48.840;9.188;2023-05-10T09:01:42;1.35;;;0.77;;
11598;SDS011;5855;48.840;9.188;2023-05-10T09:04:10;0.60;;;0.60;;
11598;SDS011;5855;48.840;9.188;2023-05-10T09:06:39;1.35;;;0.40;;
11598;SDS011;5855;48.840;9.188;2023-05-10T09:09:06;0.75;;;0.40;;
11598;SDS011;5855;48.840;9.188;2023-05-10T09:11:33;0.50;;;0.50;;
11598;SDS011;5855;48.840;9.188;2023-05-10T09:14:01;1.40;;;0.60;;
11598;SDS011;5855;48.840;9.188;2023-05-10T09:16:28;0.93;;;0.60;;
11598;SDS011;5855;48.840;9.188;2023-05-10T09:18:55;1.42;;;0.77;;
11598;SDS011;5855;48.840;9.188;2023-05-10T09:21:22;0.77;;;0.60;;
11598;SDS011;5855;48.840;9.188;2023-05-10T09:23:50;1.02;;;0.55;;
11598;SDS011;5855;48.840;9.188;2023-05-10T09:26:21;0.63;;;0.57;;
11598;SDS011;5855;48.840;9.188;2023-05-10T09:28:52;3.03;;;0.60;;
11598;SDS011;5855;48.840;9.188;2023-05-10T09:31:20;0.50;;;0.50;;
11598;SDS011;5855;48.840;9.188;2023-05-10T09:33:48;0.40;;;0.40;;
11598;SDS011;5855;48.840;9.188;2023-05-10T09:36:15;3.17;;;0.50;;
11598;SDS011;5855;48.840;9.188;2023-05-10T09:38:45;1.42;;;0.65;;
11598;SDS011;5855;48.840;9.188;2023-05-10T09:41:18;0.70;;;0.40;;
11598;SDS011;5855;48.840;9.188;2023-05-10T09:43:46;2.00;;;0.50;;
11598;SDS011;5855;48.840;9.188;2023-05-10T09:46:13;3.85;;;0.80;;
11598;SDS011;5855;48.840;9.188;2023-05-10T09:48:41;0.77;;;0.60;;
11598;SDS011;5855;48.840;9.188;2023-05-10T09:51:09;0.47;;;0.47;;
11598;SDS011;5855;48.840;9.188;2023-05-10T09:53:36;1.10;;;0.52;;
11598;SDS011;5855;48.840;9.188;2023-05-10T09:56:03;1.05;;;0.80;;
11598;SDS011;5855;48.840;9.188;2023-05-10T09:58:31;0.63;;;0.63;;
11598;SDS011;5855;48.840;9.188;2023-05-10T10:01:03;1.38;;;0.50;;
11598;SDS011;5855;48.840;9.188;2023-05-10T10:03:30;0.82;;;0.60;;
11598;SDS011;5855;48.840;9.188;2023-05-10T10:05:57;2.15;;;0.68;;
11598;SDS011;5855;48.840;9.188;2023-05-10T10:08:23;0.98;;;0.63;;
11598;SDS011;5855;48.840;9.188;2023-05-10T10:10:51;0.85;;;0.60;;
11598;SDS011;5855;48.840;9.188;2023-05-10T10:13:18;1.35;;;0.52;;
11598;SDS011;5855;48.840;9.188;2023-05-10T10:15:46;1.50;;;0.80;;
11598;SDS011;5855;48.840;9.188;2023-05-10T10:18:15;1.08;;;0.73;;
11598;SDS011;5855;48.840;9.188;2023-05-10T10:20:43;1.60;;;0.60;;
11598;SDS011;5855;48.840;9.188;2023-05-10T10:23:10;0.70;;;0.60;;
11598;SDS011;5855;48.840;9.188;2023-05-10T10:25:37;1.40;;;0.80;;
11598;SDS011;5855;48.840;9.188;2023-05-10T10:28:10;0.50;;;0.50;;
11598;SDS011;5855;48.840;9.188;2023-05-10T10:30:49;1.75;;;0.93;;
11598;SDS011;5855;48.840;9.188;2023-05-10T10:33:39;2.38;;;0.80;;
11598;SDS011;5855;48.840;9.188;2023-05-10T10:36:17;1.17;;;0.70;;
11598;SDS011;5855;48.840;9.188;2023-05-10T10:38:57;1.70;;;0.70;;
11598;SDS011;5855;48.840;9.188;2023-05-10T10:41:32;0.65;;;0.55;;
11598;SDS011;5855;48.840;9.188;2023-05-10T10:46:59;1.60;;;0.50;;
11598;SDS011;5855;48.840;9.188;2023-05-10T10:49:34;0.40;;;0.40;;
11598;SDS011;5855;48.840;9.188;2023-05-10T10:52:23;1.55;;;0.50;;
11598;SDS011;5855;48.840;9.188;2023-05-10T10:54:54;1.02;;;0.65;;
11598;SDS011;5855;48.840;9.188;2023-05-10T10:57:26;0.85;;;0.70;;
11598;SDS011;5855;48.840;9.188;2023-05-10T11:02:51;2.00;;;0.63;;
11598;SDS011;5855;48.840;9.188;2023-05-10T11:05:33;5.65;;;0.70;;
11598;SDS011;5855;48.840;9.188;2023-05-10T11:08:08;1.85;;;0.70;;
11598;SDS011;5855;48.840;9.188;2023-05-10T11:10:37;0.82;;;0.60;;
11598;SDS011;5855;48.840;9.188;2023-05-10T11:13:04;0.50;;;0.50;;
11598;SDS011;5855;48.840;9.188;2023-05-10T11:15:33;0.95;;;0.57;;
11598;SDS011;5855;48.840;9.188;2023-05-10T11:20:56;1.77;;;0.80;;
11598;SDS011;5855;48.840;9.188;2023-05-10T11:23:29;1.67;;;0.60;;
11598;SDS011;5855;48.840;9.188;2023-05-10T11:25:57;2.60;;;0.70;;
11598;SDS011;5855;48.840;9.188;2023-05-10T11:28:25;0.55;;;0.40;;
11598;SDS011;5855;48.840;9.188;2023-05-10T11:30:53;1.00;;;0.50;;
11598;SDS011;5855;48.840;9.188;2023-05-10T11:33:21;2.13;;;0.65;;
11598;SDS011;5855;48.840;9.188;2023-05-10T11:35:48;0.95;;;0.60;;
11598;SDS011;5855;48.840;9.188;2023-05-10T11:38:16;0.85;;;0.52;;
11598;SDS011;5855;48.840;9.188;2023-05-10T11:40:43;0.90;;;0.60;;
11598;SDS011;5855;48.840;9.188;2023-05-10T11:43:10;0.85;;;0.80;;
11598;SDS011;5855;48.840;9.188;2023-05-10T11:45:37;1.85;;;1.02;;
11598;SDS011;5855;48.840;9.188;2023-05-10T11:48:05;4.05;;;0.80;;
11598;SDS011;5855;48.840;9.188;2023-05-10T11:50:33;1.00;;;0.73;;
11598;SDS011;5855;48.840;9.188;2023-05-10T11:53:00;2.15;;;1.02;;
11598;SDS011;5855;48.840;9.188;2023-05-10T11:55:28;1.23;;;0.85;;
11598;SDS011;5855;48.840;9.188;2023-05-10T11:57:59;2.53;;;0.90;;
11598;SDS011;5855;48.840;9.188;2023-05-10T12:00:27;0.80;;;0.70;;
11598;SDS011;5855;48.840;9.188;2023-05-10T12:02:54;2.90;;;1.00;;
11598;SDS011;5855;48.840;9.188;2023-05-10T12:05:21;2.78;;;0.90;;
11598;SDS011;5855;48.840;9.188;2023-05-10T12:07:48;0.70;;;0.70;;
11598;SDS011;5855;48.840;9.188;2023-05-10T12:10:15;1.40;;;0.98;;
11598;SDS011;5855;48.840;9.188;2023-05-10T12:12:51;2.28;;;0.93;;
11598;SDS011;5855;48.840;9.188;2023-05-10T12:15:19;1.88;;;0.80;;
11598;SDS011;5855;48.840;9.188;2023-05-10T12:17:47;1.05;;;0.90;;
11598;SDS011;5855;48.840;9.188;2023-05-10T12:20:15;1.23;;;0.93;;
11598;SDS011;5855;48.840;9.188;2023-05-10T12:22:44;1.15;;;1.00;;
11598;SDS011;5855;48.840;9.188;2023-05-10T12:25:11;2.15;;;1.05;;
11598;SDS011;5855;48.840;9.188;2023-05-10T12:27:38;1.52;;;0.85;;
11598;SDS011;5855;48.840;9.188;2023-05-10T12:30:07;3.80;;;1.02;;
11598;SDS011;5855;48.840;9.188;2023-05-10T12:32:38;5.78;;;1.17;;
11598;SDS011;5855;48.840;9.188;2023-05-10T12:35:06;1.77;;;1.00;;
11598;SDS011;5855;48.840;9.188;2023-05-10T12:37:33;1.10;;;0.88;;
11598;SDS011;5855;48.840;9.188;2023-05-10T12:40:04;1.77;;;1.02;;
11598;SDS011;5855;48.840;9.188;2023-05-10T12:42:33;5.03;;;1.20;;
11598;SDS011;5855;48.840;9.188;2023-05-10T12:45:00;1.45;;;0.77;;
11598;SDS011;5855;48.840;9.188;2023-05-10T12:47:28;2.15;;;0.85;;
11598;SDS011;5855;48.840;9.188;2023-05-10T12:49:55;1.85;;;1.00;;
11598;SDS011;5855;48.840;9.188;2023-05-10T12:52:22;1.45;;;1.00;;
11598;SDS011;5855;48.840;9.188;2023-05-10T12:54:49;4.50;;;1.00;;
11598;SDS011;5855;48.840;9.188;2023-05-10T12:57:16;1.63;;;1.08;;
11598;SDS011;5855;48.840;9.188;2023-05-10T12:59:43;1.83;;;0.60;;
11598;SDS011;5855;48.840;9.188;2023-05-10T13:02:10;1.38;;;0.93;;
11598;SDS011;5855;48.840;9.188;2023-05-10T13:04:38;1.40;;;0.93;;
11598;SDS011;5855;48.840;9.188;2023-05-10T13:07:05;1.13;;;0.77;;
11598;SDS011;5855;48.840;9.188;2023-05-10T13:09:32;0.98;;;0.55;;
11598;SDS011;5855;48.840;9.188;2023-05-10T13:11:59;1.88;;;1.02;;
11598;SDS011;5855;48.840;9.188;2023-05-10T13:14:26;1.55;;;0.93;;
11598;SDS011;5855;48.840;9.188;2023-05-10T13:16:53;2.47;;;0.90;;
11598;SDS011;5855;48.840;9.188;2023-05-10T13:19:20;2.15;;;0.80;;
11598;SDS011;5855;48.840;9.188;2023-05-10T13:21:48;3.17;;;0.90;;
11598;SDS011;5855;48.840;9.188;2023-05-10T13:24:15;2.08;;;0.82;;
11598;SDS011;5855;48.840;9.188;2023-05-10T13:26:42;2.35;;;0.90;;
11598;SDS011;5855;48.840;9.188;2023-05-10T13:29:09;2.83;;;1.02;;
11598;SDS011;5855;48.840;9.188;2023-05-10T13:31:36;4.40;;;0.90;;
11598;SDS011;5855;48.840;9.188;2023-05-10T13:34:03;3.10;;;0.90;;
11598;SDS011;5855;48.840;9.188;2023-05-10T13:36:31;2.58;;;0.85;;
11598;SDS011;5855;48.840;9.188;2023-05-10T13:39:00;1.35;;;0.80;;
11598;SDS011;5855;48.840;9.188;2023-05-10T13:41:28;2.67;;;0.88;;
11598;SDS011;5855;48.840;9.188;2023-05-10T13:43:55;2.28;;;0.80;;
11598;SDS011;5855;48.840;9.188;2023-05-10T13:46:21;1.23;;;0.80;;
11598;SDS011;5855;48.840;9.188;2023-05-10T13:48:48;2.75;;;0.90;;
11598;SDS011;5855;48.840;9.188;2023-05-10T13:51:15;2.50;;;1.00;;
11598;SDS011;5855;48.840;9.188;2023-05-10T13:53:42;2.33;;;1.02;;
11598;SDS011;5855;48.840;9.188;2023-05-10T13:56:13;2.33;;;1.00;;
11598;SDS011;5855;48.840;9.188;2023-05-10T13:58:40;1.40;;;0.73;;
11598;SDS011;5855;48.840;9.188;2023-05-10T14:01:07;2.05;;;0.70;;
11598;SDS011;5855;48.840;9.188;2023-05-10T14:03:35;2.15;;;0.73;;
11598;SDS011;5855;48.840;9.188;2023-05-10T14:06:02;1.60;;;0.70;;
11598;SDS011;5855;48.840;9.188;2023-05-10T14:08:28;2.67;;;0.80;;
11598;SDS011;5855;48.840;9.188;2023-05-10T14:10:55;2.05;;;0.90;;
11598;SDS011;5855;48.840;9.188;2023-05-10T14:13:24;0.85;;;0.80;;
11598;SDS011;5855;48.840;9.188;2023-05-10T14:15:52;1.33;;;0.70;;
11598;SDS011;5855;48.840;9.188;2023-05-10T14:18:19;2.13;;;0.70;;
11598;SDS011;5855;48.840;9.188;2023-05-10T14:20:46;1.80;;;0.90;;
11598;SDS011;5855;48.840;9.188;2023-05-10T14:23:13;1.05;;;0.80;;
11598;SDS011;5855;48.840;9.188;2023-05-10T14:25:40;1.00;;;0.73;;
11598;SDS011;5855;48.840;9.188;2023-05-10T14:28:07;3.92;;;0.90;;
11598;SDS011;5855;48.840;9.188;2023-05-10T14:30:35;3.65;;;0.68;;
11598;SDS011;5855;48.840;9.188;2023-05-10T14:33:02;2.17;;;0.70;;
11598;SDS011;5855;48.840;9.188;2023-05-10T14:35:29;1.13;;;0.80;;
11598;SDS011;5855;48.840;9.188;2023-05-10T14:37:57;1.77;;;0.70;;
11598;SDS011;5855;48.840;9.188;2023-05-10T14:40:23;1.63;;;0.90;;
11598;SDS011;5855;48.840;9.188;2023-05-10T14:42:51;1.48;;;0.70;;
11598;SDS011;5855;48.840;9.188;2023-05-10T14:45:18;0.85;;;0.70;;
11598;SDS011;5855;48.840;9.188;2023-05-10T14:47:47;1.58;;;1.02;;
11598;SDS011;5855;48.840;9.188;2023-05-10T14:50:14;1.58;;;0.80;;
11598;SDS011;5855;48.840;9.188;2023-05-10T14:52:41;3.95;;;1.02;;
11598;SDS011;5855;48.840;9.188;2023-05-10T14:55:08;1.20;;;0.80;;
11598;SDS011;5855;48.840;9.188;2023-05-10T14:57:35;1.55;;;0.90;;
11598;SDS011;5855;48.840;9.188;2023-05-10T15:00:02;1.35;;;0.80;;
11598;SDS011;5855;48.840;9.188;2023-05-10T15:02:30;1.75;;;0.80;;
11598;SDS011;5855;48.840;9.188;2023-05-10T15:04:58;1.05;;;0.60;;
11598;SDS011;5855;48.840;9.188;2023-05-10T15:07:25;2.30;;;0.60;;
11598;SDS011;5855;48.840;9.188;2023-05-10T15:09:52;1.30;;;0.80;;
11598;SDS011;5855;48.840;9.188;2023-05-10T15:12:19;1.05;;;0.70;;
11598;SDS011;5855;48.840;9.188;2023-05-10T15:14:46;0.70;;;0.60;;
11598;SDS011;5855;48.840;9.188;2023-05-10T15:17:13;1.52;;;0.60;;
11598;SDS011;5855;48.840;9.188;2023-05-10T15:19:41;1.42;;;0.70;;
11598;SDS011;5855;48.840;9.188;2023-05-10T15:22:09;1.92;;;0.70;;